createdAt,value
2022-11-10T00:00:11.356Z,97494.78
2022-11-10T00:01:12.877Z,97494.59
2022-11-10T00:02:14.378Z,97499.75
2022-11-10T00:03:16.009Z,97494.16
2022-11-10T00:04:17.671Z,97507.16
2022-11-10T00:05:19.329Z,97501.66
2022-11-10T00:06:20.871Z,97502.88
2022-11-10T00:07:26.431Z,97499.38
2022-11-10T00:08:27.978Z,97506.91
2022-11-10T00:09:29.821Z,97501.38
2022-11-10T00:10:32.171Z,97502.81
2022-11-10T00:11:33.776Z,97505.47
2022-11-10T00:12:35.910Z,97502.81
2022-11-10T00:13:58.194Z,97505.66
2022-11-10T00:15:18.762Z,97505.34
2022-11-10T00:16:38.506Z,97504.34
2022-11-10T00:17:40.091Z,97505.47
2022-11-10T00:18:41.622Z,97500.00
2022-11-10T00:19:43.298Z,97504.09
2022-11-10T00:20:44.819Z,97500.03
2022-11-10T00:21:46.488Z,97501.28
2022-11-10T00:22:48.019Z,97503.50
2022-11-10T00:23:49.547Z,97492.63
2022-11-10T00:24:51.232Z,97495.47
2022-11-10T00:25:52.867Z,97499.91
2022-11-10T00:26:55.136Z,97507.00
2022-11-10T00:27:59.910Z,97498.84
2022-11-10T00:29:01.520Z,97498.22
2022-11-10T00:30:03.260Z,97496.81
2022-11-10T00:31:06.060Z,97493.06
2022-11-10T00:32:08.063Z,97498.56
2022-11-10T00:33:09.618Z,97500.16
2022-11-10T00:34:12.839Z,97497.19
2022-11-10T00:35:14.481Z,97495.09
2022-11-10T00:36:15.967Z,97493.22
2022-11-10T00:37:17.536Z,97490.03
2022-11-10T00:38:19.138Z,97492.41
2022-11-10T00:39:20.660Z,97489.31
2022-11-10T00:40:22.954Z,97493.09
2022-11-10T00:41:24.502Z,97487.13
2022-11-10T00:42:26.057Z,97484.16
2022-11-10T00:43:29.384Z,97487.94
2022-11-10T00:44:31.371Z,97491.69
2022-11-10T00:45:33.012Z,97491.06
2022-11-10T00:46:34.615Z,97486.84
2022-11-10T00:47:36.330Z,97485.63
2022-11-10T00:48:37.900Z,97482.59
2022-11-10T00:49:39.566Z,97487.34
2022-11-10T00:50:41.722Z,97485.94
2022-11-10T00:51:43.329Z,97479.78
2022-11-10T00:52:44.984Z,97479.78
2022-11-10T00:53:46.534Z,97472.38
2022-11-10T00:54:48.136Z,97481.03
2022-11-10T00:55:50.403Z,97480.56
2022-11-10T00:56:51.932Z,97480.06
2022-11-10T00:57:53.455Z,97475.34
2022-11-10T00:58:55.343Z,97480.69
2022-11-10T00:59:56.879Z,97478.50
2022-11-10T01:01:05.572Z,97478.50
2022-11-10T01:02:07.201Z,97476.94
2022-11-10T01:03:15.723Z,97477.09
2022-11-10T01:04:17.265Z,97478.38
2022-11-10T01:05:18.900Z,97477.56
2022-11-10T01:06:21.844Z,97481.97
2022-11-10T01:07:23.380Z,97476.13
2022-11-10T01:08:25.271Z,97479.13
2022-11-10T01:09:27.227Z,97479.75
2022-11-10T01:10:28.954Z,97471.22
2022-11-10T01:11:30.568Z,97471.22
2022-11-10T01:12:32.139Z,97473.44
2022-11-10T01:13:34.121Z,97471.84
2022-11-10T01:14:35.689Z,97476.25
2022-11-10T01:15:41.223Z,97471.50
2022-11-10T01:16:42.810Z,97466.16
2022-11-10T01:17:44.418Z,97473.72
2022-11-10T01:18:51.163Z,97476.88
2022-11-10T01:19:52.705Z,97475.78
2022-11-10T01:20:54.219Z,97473.09
2022-11-10T01:21:55.742Z,97477.97
2022-11-10T01:22:57.264Z,97469.13
2022-11-10T01:23:59.127Z,97469.94
2022-11-10T01:25:00.819Z,97476.25
2022-11-10T01:26:05.143Z,97483.66
2022-11-10T01:27:06.719Z,97473.75
2022-11-10T01:28:08.287Z,97478.50
2022-11-10T01:29:09.803Z,97473.25
2022-11-10T01:30:12.082Z,97473.38
2022-11-10T01:31:16.079Z,97477.19
2022-11-10T01:32:17.659Z,97483.75
2022-11-10T01:33:19.434Z,97479.94
2022-11-10T01:34:21.226Z,97482.38
2022-11-10T01:35:22.807Z,97479.03
2022-11-10T01:36:24.326Z,97481.84
2022-11-10T01:37:25.865Z,97480.19
2022-11-10T01:38:29.342Z,97479.47
2022-11-10T01:39:30.893Z,97479.19
2022-11-10T01:40:32.435Z,97479.34
2022-11-10T01:41:34.049Z,97479.25
2022-11-10T01:42:46.016Z,97469.50
2022-11-10T01:43:47.541Z,97475.66
2022-11-10T01:45:23.998Z,97474.44
2022-11-10T01:46:26.306Z,97479.47
2022-11-10T01:47:27.930Z,97478.88
2022-11-10T01:48:52.795Z,97485.69
2022-11-10T01:49:54.657Z,97493.88
2022-11-10T01:51:10.082Z,97491.69
2022-11-10T01:52:14.107Z,97487.78
2022-11-10T01:53:23.254Z,97488.94
2022-11-10T01:54:36.278Z,97490.03
2022-11-10T01:55:41.486Z,97492.34
2022-11-10T01:56:47.738Z,97480.25
2022-11-10T01:57:49.346Z,97481.91
2022-11-10T01:58:58.491Z,97475.59
2022-11-10T02:00:00.382Z,97478.63
2022-11-10T02:01:02.087Z,97477.03
2022-11-10T02:02:14.109Z,97481.97
2022-11-10T02:03:31.986Z,97478.38
2022-11-10T02:04:34.966Z,97482.50
2022-11-10T02:05:37.043Z,97478.91
2022-11-10T02:06:41.883Z,97487.91
2022-11-10T02:07:43.997Z,97484.97
2022-11-10T02:08:46.279Z,97485.75
2022-11-10T02:09:48.056Z,97488.94
2022-11-10T02:10:49.564Z,97487.97
2022-11-10T02:11:54.273Z,97480.72
2022-11-10T02:12:55.803Z,97489.56
2022-11-10T02:13:57.507Z,97485.16
2022-11-10T02:14:59.318Z,97491.19
2022-11-10T02:16:00.948Z,97487.56
2022-11-10T02:17:02.592Z,97490.41
2022-11-10T02:18:04.212Z,97490.84
2022-11-10T02:19:25.076Z,97482.00
2022-11-10T02:20:26.608Z,97481.81
2022-11-10T02:21:28.139Z,97489.06
2022-11-10T02:22:29.663Z,97488.56
2022-11-10T02:23:31.231Z,97493.91
2022-11-10T02:24:32.889Z,97485.88
2022-11-10T02:25:34.789Z,97485.75
2022-11-10T02:26:42.272Z,97487.50
2022-11-10T02:27:43.860Z,97491.47
2022-11-10T02:28:45.426Z,97494.16
2022-11-10T02:29:47.081Z,97494.66
2022-11-10T02:30:48.923Z,97494.53
2022-11-10T02:31:50.519Z,97489.31
2022-11-10T02:32:52.039Z,97490.03
2022-11-10T02:33:53.567Z,97492.03
2022-11-10T02:34:55.109Z,97487.91
2022-11-10T02:35:56.941Z,97490.66
2022-11-10T02:36:58.512Z,97495.03
2022-11-10T02:38:00.153Z,97494.59
2022-11-10T02:39:01.754Z,97489.00
2022-11-10T02:40:03.750Z,97488.72
2022-11-10T02:41:05.475Z,97491.25
2022-11-10T02:42:10.460Z,97491.75
2022-11-10T02:43:14.638Z,97488.97
2022-11-10T02:44:16.319Z,97487.72
2022-11-10T02:45:17.847Z,97491.88
2022-11-10T02:46:19.383Z,97495.41
2022-11-10T02:47:20.927Z,97497.16
2022-11-10T02:48:22.511Z,97499.72
2022-11-10T02:49:24.136Z,97492.66
2022-11-10T02:50:25.658Z,97495.63
2022-11-10T02:51:27.187Z,97497.72
2022-11-10T02:52:28.724Z,97501.81
2022-11-10T02:53:30.298Z,97500.88
2022-11-10T02:54:31.837Z,97503.13
2022-11-10T02:55:33.557Z,97500.97
2022-11-10T02:56:35.535Z,97506.63
2022-11-10T02:57:37.692Z,97502.88
2022-11-10T02:58:39.192Z,97508.22
2022-11-10T02:59:40.792Z,97506.03
2022-11-10T03:00:42.336Z,97504.81
2022-11-10T03:01:43.963Z,97512.34
2022-11-10T03:02:45.775Z,97506.84
2022-11-10T03:03:47.321Z,97505.41
2022-11-10T03:04:48.831Z,97516.13
2022-11-10T03:05:50.383Z,97511.72
2022-11-10T03:06:51.926Z,97510.78
2022-11-10T03:07:57.987Z,97507.63
2022-11-10T03:08:59.799Z,97503.84
2022-11-10T03:10:01.416Z,97508.88
2022-11-10T03:11:02.994Z,97511.25
2022-11-10T03:12:04.650Z,97506.38
2022-11-10T03:13:06.245Z,97517.28
2022-11-10T03:14:07.757Z,97510.03
2022-11-10T03:15:09.810Z,97513.97
2022-11-10T03:16:11.305Z,97512.59
2022-11-10T03:17:12.908Z,97507.69
2022-11-10T03:18:14.485Z,97516.50
2022-11-10T03:19:16.118Z,97514.34
2022-11-10T03:20:18.527Z,97512.44
2022-11-10T03:21:20.076Z,97514.00
2022-11-10T03:22:21.625Z,97517.81
2022-11-10T03:23:23.311Z,97512.44
2022-11-10T03:24:25.059Z,97512.13
2022-11-10T03:25:26.588Z,97511.03
2022-11-10T03:26:28.086Z,97516.88
2022-11-10T03:27:29.624Z,97524.72
2022-11-10T03:28:31.160Z,97522.66
2022-11-10T03:29:32.772Z,97517.16
2022-11-10T03:30:34.763Z,97516.88
2022-11-10T03:31:36.306Z,97519.13
2022-11-10T03:32:37.856Z,97522.88
2022-11-10T03:33:39.381Z,97524.34
2022-11-10T03:34:40.983Z,97523.69
2022-11-10T03:35:42.651Z,97519.94
2022-11-10T03:36:44.763Z,97523.22
2022-11-10T03:37:46.279Z,97518.84
2022-11-10T03:38:47.818Z,97516.47
2022-11-10T03:39:49.544Z,97525.41
2022-11-10T03:41:17.569Z,97521.47
2022-11-10T03:42:12.623Z,97531.38
2022-11-10T03:43:14.185Z,97521.31
2022-11-10T03:44:15.750Z,97522.38
2022-11-10T03:45:17.485Z,97529.47
2022-11-10T03:46:19.233Z,97528.50
2022-11-10T03:47:21.018Z,97529.56
2022-11-10T03:48:22.656Z,97534.72
2022-11-10T03:49:24.216Z,97531.59
2022-11-10T03:50:25.772Z,97531.09
2022-11-10T03:51:27.280Z,97538.03
2022-11-10T03:52:28.800Z,97532.69
2022-11-10T03:53:30.335Z,97536.63
2022-11-10T03:54:31.896Z,97530.97
2022-11-10T03:55:33.483Z,97534.72
2022-11-10T03:56:35.362Z,97533.50
2022-11-10T03:57:36.891Z,97537.78
2022-11-10T03:58:38.383Z,97533.88
2022-11-10T03:59:39.948Z,97540.31
2022-11-10T04:00:41.538Z,97535.41
2022-11-10T04:01:43.070Z,97538.59
2022-11-10T04:02:44.680Z,97540.97
2022-11-10T04:03:51.340Z,97532.16
2022-11-10T04:05:12.697Z,97543.00
2022-11-10T04:06:32.845Z,97541.03
2022-11-10T04:07:53.164Z,97541.31
2022-11-10T04:09:00.565Z,97534.66
2022-11-10T04:10:02.088Z,97538.06
2022-11-10T04:11:04.264Z,97537.25
2022-11-10T04:12:25.164Z,97541.03
2022-11-10T04:13:45.483Z,97539.28
2022-11-10T04:15:05.780Z,97537.72
2022-11-10T04:16:07.494Z,97541.47
2022-11-10T04:17:09.700Z,97541.16
2022-11-10T04:18:21.407Z,97541.47
2022-11-10T04:19:23.025Z,97543.06
2022-11-10T04:20:24.536Z,97544.63
2022-11-10T04:21:26.089Z,97552.19
2022-11-10T04:22:46.136Z,97545.88
2022-11-10T04:23:47.647Z,97546.44
2022-11-10T04:24:49.177Z,97548.66
2022-11-10T04:26:09.544Z,97548.66
2022-11-10T04:27:11.096Z,97549.25
2022-11-10T04:28:12.606Z,97550.03
2022-11-10T04:29:18.573Z,97543.91
2022-11-10T04:30:20.176Z,97547.06
2022-11-10T04:31:23.457Z,97551.97
2022-11-10T04:32:25.168Z,97551.22
2022-11-10T04:33:26.695Z,97555.78
2022-11-10T04:34:28.219Z,97551.38
2022-11-10T04:35:29.786Z,97556.13
2022-11-10T04:36:32.772Z,97562.25
2022-11-10T04:37:34.299Z,97560.09
2022-11-10T04:38:36.079Z,97558.66
2022-11-10T04:39:37.567Z,97559.16
2022-11-10T04:40:39.063Z,97557.88
2022-11-10T04:41:40.673Z,97561.66
2022-11-10T04:42:42.367Z,97563.44
2022-11-10T04:43:44.558Z,97551.31
2022-11-10T04:44:46.115Z,97559.81
2022-11-10T04:45:47.717Z,97557.63
2022-11-10T04:46:49.563Z,97559.81
2022-11-10T04:47:51.119Z,97562.22
2022-11-10T04:48:54.210Z,97559.22
2022-11-10T04:49:55.802Z,97563.19
2022-11-10T04:50:57.486Z,97556.41
2022-11-10T04:51:59.207Z,97561.16
2022-11-10T04:53:00.870Z,97561.16
2022-11-10T04:54:03.137Z,97560.53
2022-11-10T04:55:05.034Z,97566.84
2022-11-10T04:56:06.756Z,97561.69
2022-11-10T04:57:08.266Z,97567.66
2022-11-10T04:58:10.488Z,97563.44
2022-11-10T04:59:12.026Z,97565.50
2022-11-10T05:00:14.130Z,97570.69
2022-11-10T05:01:21.298Z,97562.59
2022-11-10T05:02:22.895Z,97579.22
2022-11-10T05:03:26.554Z,97573.34
2022-11-10T05:04:28.070Z,97567.03
2022-11-10T05:05:29.690Z,97569.03
2022-11-10T05:06:31.252Z,97569.16
2022-11-10T05:07:32.881Z,97567.25
2022-11-10T05:08:34.539Z,97572.97
2022-11-10T05:09:36.121Z,97567.91
2022-11-10T05:10:38.450Z,97562.56
2022-11-10T05:11:39.962Z,97569.81
2022-11-10T05:12:41.527Z,97565.44
2022-11-10T05:13:44.534Z,97570.78
2022-11-10T05:14:46.883Z,97570.13
2022-11-10T05:15:48.541Z,97577.34
2022-11-10T05:16:50.078Z,97578.47
2022-11-10T05:17:53.374Z,97580.88
2022-11-10T05:18:56.077Z,97579.09
2022-11-10T05:19:57.646Z,97587.06
2022-11-10T05:20:59.951Z,97579.66
2022-11-10T05:22:01.571Z,97582.94
2022-11-10T05:23:22.220Z,97579.16
2022-11-10T05:24:24.055Z,97583.91
2022-11-10T05:25:25.802Z,97580.56
2022-11-10T05:26:27.316Z,97580.88
2022-11-10T05:27:29.979Z,97583.56
2022-11-10T05:28:31.613Z,97582.16
2022-11-10T05:29:33.195Z,97584.53
2022-11-10T05:30:35.663Z,97581.97
2022-11-10T05:31:37.239Z,97586.13
2022-11-10T05:32:38.818Z,97585.97
2022-11-10T05:33:40.574Z,97586.56
2022-11-10T05:34:42.121Z,97591.53
2022-11-10T05:35:44.292Z,97585.22
2022-11-10T05:36:45.929Z,97591.53
2022-11-10T05:37:47.569Z,97591.91
2022-11-10T05:38:49.104Z,97592.28
2022-11-10T05:39:50.617Z,97586.34
2022-11-10T05:40:52.484Z,97589.66
2022-11-10T05:41:54.501Z,97593.81
2022-11-10T05:42:56.206Z,97597.16
2022-11-10T05:43:57.771Z,97603.97
2022-11-10T05:44:59.311Z,97594.75
2022-11-10T05:46:00.944Z,97594.38
2022-11-10T05:47:02.906Z,97599.25
2022-11-10T05:48:04.655Z,97601.13
2022-11-10T05:49:06.199Z,97605.56
2022-11-10T05:50:09.040Z,97605.44
2022-11-10T05:51:10.574Z,97599.31
2022-11-10T05:52:12.149Z,97604.94
2022-11-10T05:53:13.773Z,97604.81
2022-11-10T05:54:15.546Z,97603.63
2022-11-10T05:55:19.697Z,97600.81
2022-11-10T05:56:21.259Z,97603.38
2022-11-10T05:57:22.805Z,97605.19
2022-11-10T05:58:24.399Z,97607.06
2022-11-10T05:59:25.922Z,97607.66
2022-11-10T06:00:29.998Z,97610.81
2022-11-10T06:01:31.550Z,97611.84
2022-11-10T06:02:33.135Z,97612.44
2022-11-10T06:03:34.734Z,97611.34
2022-11-10T06:04:36.300Z,97616.28
2022-11-10T06:05:37.943Z,97616.75
2022-11-10T06:06:39.551Z,97619.22
2022-11-10T06:07:41.121Z,97615.03
2022-11-10T06:08:42.655Z,97617.16
2022-11-10T06:09:44.403Z,97622.78
2022-11-10T06:10:45.996Z,97618.78
2022-11-10T06:11:47.488Z,97623.25
2022-11-10T06:12:49.112Z,97626.78
2022-11-10T06:13:50.632Z,97624.97
2022-11-10T06:14:52.145Z,97618.50
2022-11-10T06:15:53.714Z,97615.94
2022-11-10T06:16:55.344Z,97622.09
2022-11-10T06:17:57.250Z,97622.47
2022-11-10T06:18:58.766Z,97632.75
2022-11-10T06:20:00.247Z,97622.22
2022-11-10T06:21:01.795Z,97621.47
2022-11-10T06:22:07.525Z,97623.88
2022-11-10T06:23:13.925Z,97628.28
2022-11-10T06:24:15.580Z,97627.34
2022-11-10T06:25:17.142Z,97628.28
2022-11-10T06:26:18.911Z,97632.69
2022-11-10T06:27:20.415Z,97625.81
2022-11-10T06:28:21.986Z,97634.88
2022-11-10T06:29:26.798Z,97628.69
2022-11-10T06:30:30.659Z,97636.22
2022-11-10T06:31:32.324Z,97638.31
2022-11-10T06:32:35.137Z,97638.38
2022-11-10T06:33:36.693Z,97637.34
2022-11-10T06:34:41.411Z,97636.28
2022-11-10T06:35:42.922Z,97635.31
2022-11-10T06:36:44.439Z,97641.84
2022-11-10T06:37:46.110Z,97641.03
2022-11-10T06:38:47.916Z,97640.47
2022-11-10T06:39:49.494Z,97642.84
2022-11-10T06:40:51.032Z,97645.63
2022-11-10T06:41:52.647Z,97645.13
2022-11-10T06:42:54.588Z,97644.50
2022-11-10T06:43:56.265Z,97645.81
2022-11-10T06:44:57.807Z,97646.00
2022-11-10T06:45:59.334Z,97642.25
2022-11-10T06:47:00.893Z,97642.25
2022-11-10T06:48:07.830Z,97642.72
2022-11-10T06:49:09.370Z,97641.84
2022-11-10T06:50:10.963Z,97639.84
2022-11-10T06:51:12.540Z,97643.91
2022-11-10T06:52:14.213Z,97645.47
2022-11-10T06:53:17.109Z,97654.31
2022-11-10T06:54:18.613Z,97646.75
2022-11-10T06:55:20.611Z,97646.75
2022-11-10T06:56:22.215Z,97644.75
2022-11-10T06:57:23.735Z,97651.41
2022-11-10T06:58:25.247Z,97652.44
2022-11-10T06:59:26.800Z,97646.16
2022-11-10T07:00:29.406Z,97654.09
2022-11-10T07:01:31.067Z,97651.16
2022-11-10T07:02:32.622Z,97654.53
2022-11-10T07:03:38.870Z,97650.63
2022-11-10T07:04:46.031Z,97654.63
2022-11-10T07:05:47.570Z,97658.19
2022-11-10T07:06:49.231Z,97652.28
2022-11-10T07:07:51.791Z,97655.31
2022-11-10T07:08:53.357Z,97659.75
2022-11-10T07:09:54.886Z,97659.75
2022-11-10T07:10:56.601Z,97664.69
2022-11-10T07:11:58.164Z,97658.56
2022-11-10T07:13:01.524Z,97659.75
2022-11-10T07:14:03.120Z,97655.03
2022-11-10T07:15:05.603Z,97656.59
2022-11-10T07:16:08.339Z,97656.16
2022-11-10T07:17:09.911Z,97653.78
2022-11-10T07:18:11.579Z,97667.06
2022-11-10T07:19:14.609Z,97662.25
2022-11-10T07:20:16.323Z,97662.09
2022-11-10T07:21:17.843Z,97662.47
2022-11-10T07:22:19.418Z,97663.13
2022-11-10T07:23:21.323Z,97658.25
2022-11-10T07:24:23.232Z,97658.09
2022-11-10T07:25:25.069Z,97660.16
2022-11-10T07:26:26.681Z,97667.44
2022-11-10T07:27:28.245Z,97664.13
2022-11-10T07:28:29.877Z,97658.13
2022-11-10T07:29:31.404Z,97662.91
2022-11-10T07:30:34.796Z,97657.53
2022-11-10T07:31:36.344Z,97661.16
2022-11-10T07:32:37.871Z,97663.84
2022-11-10T07:33:39.434Z,97656.75
2022-11-10T07:34:40.965Z,97664.16
2022-11-10T07:35:42.547Z,97662.59
2022-11-10T07:36:44.124Z,97659.59
2022-11-10T07:37:45.667Z,97664.31
2022-11-10T07:38:47.503Z,97660.22
2022-11-10T07:39:49.052Z,97661.97
2022-11-10T07:40:52.147Z,97661.81
2022-11-10T07:41:53.673Z,97657.84
2022-11-10T07:42:55.249Z,97659.94
2022-11-10T07:43:56.820Z,97662.91
2022-11-10T07:44:58.319Z,97661.31
2022-11-10T07:46:00.836Z,97659.59
2022-11-10T07:47:02.411Z,97658.81
2022-11-10T07:48:07.157Z,97654.41
2022-11-10T07:49:08.797Z,97655.34
2022-11-10T07:50:10.968Z,97657.91
2022-11-10T07:51:12.606Z,97657.91
2022-11-10T07:52:14.150Z,97662.00
2022-11-10T07:53:17.676Z,97656.00
2022-11-10T07:54:19.255Z,97660.44
2022-11-10T07:55:21.861Z,97661.56
2022-11-10T07:56:23.385Z,97661.38
2022-11-10T07:57:24.942Z,97669.59
2022-11-10T07:58:26.524Z,97658.88
2022-11-10T07:59:28.190Z,97661.06
2022-11-10T08:00:30.128Z,97665.78
2022-11-10T08:01:31.723Z,97663.00
2022-11-10T08:02:33.275Z,97663.13
2022-11-10T08:03:34.843Z,97665.50
2022-11-10T08:04:36.379Z,97667.56
2022-11-10T08:05:38.408Z,97665.81
2022-11-10T08:06:40.201Z,97659.19
2022-11-10T08:07:42.011Z,97663.91
2022-11-10T08:08:43.580Z,97658.72
2022-11-10T08:09:45.154Z,97670.53
2022-11-10T08:10:46.792Z,97656.81
2022-11-10T08:11:48.351Z,97669.28
2022-11-10T08:12:56.875Z,97661.06
2022-11-10T08:13:58.391Z,97659.47
2022-11-10T08:14:59.913Z,97660.28
2022-11-10T08:16:01.462Z,97664.56
2022-11-10T08:17:02.991Z,97657.75
2022-11-10T08:18:19.280Z,97660.28
2022-11-10T08:19:20.786Z,97661.88
2022-11-10T08:20:22.601Z,97666.28
2022-11-10T08:21:24.133Z,97670.22
2022-11-10T08:22:25.672Z,97671.66
2022-11-10T08:23:28.634Z,97664.41
2022-11-10T08:24:30.160Z,97672.13
2022-11-10T08:25:35.467Z,97668.97
2022-11-10T08:26:37.319Z,97672.00
2022-11-10T08:27:39.016Z,97681.75
2022-11-10T08:28:40.710Z,97678.75
2022-11-10T08:29:42.397Z,97677.66
2022-11-10T08:30:47.002Z,97681.59
2022-11-10T08:31:48.629Z,97688.56
2022-11-10T08:32:50.231Z,97687.75
2022-11-10T08:33:52.346Z,97686.19
2022-11-10T08:34:53.876Z,97684.44
2022-11-10T08:35:55.395Z,97680.66
2022-11-10T08:36:56.965Z,97688.56
2022-11-10T08:37:58.580Z,97681.59
2022-11-10T08:39:00.182Z,97683.84
2022-11-10T08:40:01.729Z,97689.50
2022-11-10T08:41:03.524Z,97682.25
2022-11-10T08:42:06.366Z,97697.41
2022-11-10T08:43:08.496Z,97688.38
2022-11-10T08:44:11.149Z,97690.63
2022-11-10T08:45:13.577Z,97687.59
2022-11-10T08:46:15.121Z,97687.59
2022-11-10T08:47:16.652Z,97687.44
2022-11-10T08:48:20.471Z,97685.41
2022-11-10T08:49:22.031Z,97685.41
2022-11-10T08:50:23.851Z,97689.03
2022-11-10T08:51:25.574Z,97696.28
2022-11-10T08:52:27.754Z,97687.78
2022-11-10T08:53:29.368Z,97688.72
2022-11-10T08:54:30.943Z,97683.19
2022-11-10T08:55:32.803Z,97687.28
2022-11-10T08:56:34.538Z,97689.81
2022-11-10T08:57:36.058Z,97687.63
2022-11-10T08:58:48.555Z,97691.56
2022-11-10T08:59:54.421Z,97687.91
2022-11-10T09:00:56.389Z,97688.56
2022-11-10T09:01:58.079Z,97686.53
2022-11-10T09:03:07.861Z,97677.50
2022-11-10T09:04:09.489Z,97681.75
2022-11-10T09:05:11.236Z,97679.72
2022-11-10T09:06:12.856Z,97688.09
2022-11-10T09:07:14.456Z,97683.66
2022-11-10T09:08:17.076Z,97683.19
2022-11-10T09:09:18.596Z,97688.88
2022-11-10T09:10:20.129Z,97683.53
2022-11-10T09:11:21.696Z,97684.16
2022-11-10T09:12:23.245Z,97683.47
2022-11-10T09:13:29.631Z,97678.13
2022-11-10T09:14:31.929Z,97678.44
2022-11-10T09:15:34.719Z,97684.16
2022-11-10T09:16:36.444Z,97680.66
2022-11-10T09:17:41.636Z,97682.88
2022-11-10T09:18:43.165Z,97682.84
2022-11-10T09:19:44.769Z,97678.13
2022-11-10T09:20:46.443Z,97689.31
2022-11-10T09:21:48.003Z,97682.66
2022-11-10T09:22:49.591Z,97682.63
2022-11-10T09:23:51.106Z,97682.78
2022-11-10T09:24:52.653Z,97680.38
2022-11-10T09:25:56.160Z,97680.22
2022-11-10T09:26:57.688Z,97679.28
2022-11-10T09:27:59.403Z,97674.88
2022-11-10T09:29:00.952Z,97678.00
2022-11-10T09:30:03.582Z,97680.22
2022-11-10T09:31:05.145Z,97680.69
2022-11-10T09:32:06.733Z,97675.38
2022-11-10T09:33:08.691Z,97672.34
2022-11-10T09:34:10.767Z,97675.69
2022-11-10T09:35:13.624Z,97676.63
2022-11-10T09:36:15.182Z,97677.41
2022-11-10T09:37:16.692Z,97676.78
2022-11-10T09:38:18.295Z,97665.94
2022-11-10T09:39:19.989Z,97665.16
2022-11-10T09:40:36.187Z,97670.56
2022-11-10T09:41:43.813Z,97664.72
2022-11-10T09:42:47.555Z,97665.19
2022-11-10T09:44:10.994Z,97668.34
2022-11-10T09:45:24.064Z,97665.34
2022-11-10T09:46:46.111Z,97667.88
2022-11-10T09:47:57.373Z,97664.25
2022-11-10T09:49:10.269Z,97673.72
2022-11-10T09:50:28.093Z,97667.72
2022-11-10T09:51:35.629Z,97662.81
2022-11-10T09:52:39.347Z,97664.06
2022-11-10T09:53:50.629Z,97665.34
2022-11-10T09:55:03.451Z,97665.50
2022-11-10T09:56:07.145Z,97665.66
2022-11-10T09:57:15.366Z,97662.50
2022-11-10T09:58:18.546Z,97667.25
2022-11-10T09:59:30.521Z,97663.28
2022-11-10T10:00:34.822Z,97660.13
2022-11-10T10:01:46.335Z,97653.63
2022-11-10T10:02:59.392Z,97656.28
2022-11-10T10:04:13.914Z,97660.56
2022-11-10T10:05:30.620Z,97658.69
2022-11-10T10:07:04.821Z,97660.56
2022-11-10T10:08:04.848Z,97653.47
2022-11-10T10:09:51.414Z,97648.53
2022-11-10T10:11:37.004Z,97655.59
2022-11-10T10:13:09.531Z,97654.94
2022-11-10T10:14:32.867Z,97654.69
2022-11-10T10:15:44.944Z,97647.47
2022-11-10T10:17:00.665Z,97644.78
2022-11-10T10:18:16.978Z,97646.34
2022-11-10T10:19:23.951Z,97642.09
2022-11-10T10:20:46.754Z,97650.44
2022-11-10T10:22:25.408Z,97647.13
2022-11-10T10:24:07.121Z,97647.78
2022-11-10T10:25:02.236Z,97646.19
2022-11-10T10:26:04.126Z,97651.56
2022-11-10T10:27:11.596Z,97644.28
2022-11-10T10:28:19.286Z,97653.41
2022-11-10T10:29:30.892Z,97642.91
2022-11-10T10:30:36.285Z,97642.91
2022-11-10T10:31:43.710Z,97638.59
2022-11-10T10:32:45.505Z,97643.00
2022-11-10T10:33:47.656Z,97638.69
2022-11-10T10:34:49.471Z,97640.34
2022-11-10T10:35:51.079Z,97635.28
2022-11-10T10:36:52.655Z,97642.13
2022-11-10T10:37:57.640Z,97638.59
2022-11-10T10:39:12.574Z,97636.38
2022-11-10T10:40:23.697Z,97640.81
2022-11-10T10:41:28.282Z,97641.75
2022-11-10T10:42:32.646Z,97650.00
2022-11-10T10:43:34.288Z,97644.63
2022-11-10T10:44:36.165Z,97640.16
2022-11-10T10:45:42.323Z,97646.91
2022-11-10T10:47:10.024Z,97645.72
2022-11-10T10:48:29.181Z,97642.19
2022-11-10T10:49:33.805Z,97639.78
2022-11-10T10:50:41.876Z,97632.78
2022-11-10T10:51:43.527Z,97638.13
2022-11-10T10:52:45.135Z,97641.09
2022-11-10T10:53:48.179Z,97637.94
2022-11-10T10:55:00.489Z,97627.63
2022-11-10T10:56:15.725Z,97628.09
2022-11-10T10:57:24.698Z,97623.81
2022-11-10T10:58:28.784Z,97621.09
2022-11-10T10:59:31.185Z,97624.84
2022-11-10T11:00:33.521Z,97628.72
2022-11-10T11:01:38.482Z,97616.88
2022-11-10T11:02:40.159Z,97623.31
2022-11-10T11:03:44.583Z,97622.31
2022-11-10T11:04:46.184Z,97615.41
2022-11-10T11:06:03.052Z,97614.25
2022-11-10T11:07:19.249Z,97607.28
2022-11-10T11:08:21.206Z,97604.78
2022-11-10T11:09:27.949Z,97610.03
2022-11-10T11:10:35.499Z,97605.94
2022-11-10T11:11:40.680Z,97605.94
2022-11-10T11:12:42.210Z,97607.22
2022-11-10T11:13:43.769Z,97604.00
2022-11-10T11:14:46.301Z,97607.56
2022-11-10T11:16:02.745Z,97607.38
2022-11-10T11:17:19.732Z,97599.50
2022-11-10T11:18:22.296Z,97601.41
2022-11-10T11:19:27.654Z,97598.72
2022-11-10T11:20:38.526Z,97597.94
2022-11-10T11:22:18.545Z,97604.53
2022-11-10T11:23:58.427Z,97601.69
2022-11-10T11:25:08.807Z,97593.59
2022-11-10T11:26:44.385Z,97586.63
2022-11-10T11:28:16.867Z,97593.91
2022-11-10T11:29:41.757Z,97584.53
2022-11-10T11:31:02.634Z,97584.19
2022-11-10T11:32:41.475Z,97588.06
2022-11-10T11:34:00.809Z,97586.25
2022-11-10T11:35:24.533Z,97584.25
2022-11-10T11:36:32.034Z,97576.13
2022-11-10T11:37:56.557Z,97573.00
2022-11-10T11:39:06.440Z,97575.91
2022-11-10T11:40:28.889Z,97577.03
2022-11-10T11:42:23.190Z,97573.91
2022-11-10T11:43:39.516Z,97572.91
2022-11-10T11:45:18.754Z,97572.59
2022-11-10T11:46:49.392Z,97572.16
2022-11-10T11:48:06.188Z,97571.16
2022-11-10T11:49:34.519Z,97572.81
2022-11-10T11:50:54.955Z,97565.19
2022-11-10T11:52:19.607Z,97567.56
2022-11-10T11:53:23.784Z,97565.19
2022-11-10T11:54:52.365Z,97565.19
2022-11-10T11:56:25.933Z,97558.69
2022-11-10T11:57:46.328Z,97560.22
2022-11-10T11:58:56.768Z,97562.00
2022-11-10T12:00:12.681Z,97561.06
2022-11-10T12:01:29.472Z,97562.59
2022-11-10T12:02:42.936Z,97564.53
2022-11-10T12:04:35.472Z,97564.03
2022-11-10T12:06:24.087Z,97559.44
2022-11-10T12:07:55.354Z,97561.91
2022-11-10T12:09:33.927Z,97564.28
2022-11-10T12:10:43.739Z,97557.75
2022-11-10T12:12:04.316Z,97560.47
2022-11-10T12:13:44.136Z,97558.91
2022-11-10T12:15:00.850Z,97555.78
2022-11-10T12:16:09.603Z,97555.81
2022-11-10T12:17:28.310Z,97559.06
2022-11-10T12:18:30.438Z,97555.94
2022-11-10T12:20:16.738Z,97552.47
2022-11-10T12:21:35.115Z,97550.19
2022-11-10T12:22:51.517Z,97552.09
2022-11-10T12:23:59.139Z,97552.69
2022-11-10T12:25:19.441Z,97554.00
2022-11-10T12:26:27.609Z,97545.09
2022-11-10T12:27:35.708Z,97551.47
2022-11-10T12:28:47.604Z,97553.94
2022-11-10T12:30:06.179Z,97544.34
2022-11-10T12:31:15.435Z,97544.13
2022-11-10T12:32:32.376Z,97545.81
2022-11-10T12:33:50.729Z,97536.63
2022-11-10T12:35:18.685Z,97535.81
2022-11-10T12:36:22.274Z,97544.16
2022-11-10T12:37:33.876Z,97540.00
2022-11-10T12:39:03.488Z,97543.16
2022-11-10T12:40:13.046Z,97543.50
2022-11-10T12:41:16.800Z,97545.53
2022-11-10T12:42:22.314Z,97536.53
2022-11-10T12:43:39.916Z,97547.06
2022-11-10T12:45:05.501Z,97532.69
2022-11-10T12:46:12.058Z,97535.41
2022-11-10T12:47:20.493Z,97541.91
2022-11-10T12:48:23.769Z,97538.31